sensor_id;sensor_type;location;lat;lon;timestamp;P1;durP1;ratioP1;P2;durP2;ratioP2
26820;SDS011;37186;51.394;5.454;2023-06-05T00:01:01;4.10;;;4.00;;
26820;SDS011;37186;51.394;5.454;2023-06-05T00:04:02;4.53;;;4.43;;
26820;SDS011;37186;51.394;5.454;2023-06-05T00:07:03;4.65;;;4.55;;
26820;SDS011;37186;51.394;5.454;2023-06-05T00:10:05;5.00;;;4.90;;
26820;SDS011;37186;51.394;5.454;2023-06-05T00:13:06;5.20;;;5.10;;
26820;SDS011;37186;51.394;5.454;2023-06-05T00:16:06;4.95;;;4.85;;
26820;SDS011;37186;51.394;5.454;2023-06-05T00:19:07;4.78;;;4.68;;
26820;SDS011;37186;51.394;5.454;2023-06-05T00:22:08;4.40;;;4.30;;
26820;SDS011;37186;51.394;5.454;2023-06-05T00:25:08;4.05;;;3.95;;
26820;SDS011;37186;51.394;5.454;2023-06-05T00:28:09;4.18;;;4.07;;
26820;SDS011;37186;51.394;5.454;2023-06-05T00:31:10;3.95;;;3.85;;
26820;SDS011;37186;51.394;5.454;2023-06-05T00:34:13;3.60;;;3.50;;
26820;SDS011;37186;51.394;5.454;2023-06-05T00:37:14;4.03;;;3.92;;
26820;SDS011;37186;51.394;5.454;2023-06-05T00:40:15;4.05;;;3.95;;
26820;SDS011;37186;51.394;5.454;2023-06-05T00:43:16;4.47;;;4.38;;
26820;SDS011;37186;51.394;5.454;2023-06-05T00:46:16;4.43;;;4.32;;
26820;SDS011;37186;51.394;5.454;2023-06-05T00:49:18;4.57;;;4.47;;
26820;SDS011;37186;51.394;5.454;2023-06-05T00:52:19;4.15;;;4.05;;
26820;SDS011;37186;51.394;5.454;2023-06-05T00:55:20;3.97;;;3.88;;
26820;SDS011;37186;51.394;5.454;2023-06-05T00:58:21;3.90;;;3.80;;
26820;SDS011;37186;51.394;5.454;2023-06-05T01:01:22;3.88;;;3.78;;
26820;SDS011;37186;51.394;5.454;2023-06-05T01:04:24;3.60;;;3.50;;
26820;SDS011;37186;51.394;5.454;2023-06-05T01:07:26;3.53;;;3.42;;
26820;SDS011;37186;51.394;5.454;2023-06-05T01:10:30;3.75;;;3.65;;
26820;SDS011;37186;51.394;5.454;2023-06-05T01:13:31;3.80;;;3.70;;
26820;SDS011;37186;51.394;5.454;2023-06-05T01:16:40;3.78;;;3.67;;
26820;SDS011;37186;51.394;5.454;2023-06-05T01:19:42;3.70;;;3.60;;
26820;SDS011;37186;51.394;5.454;2023-06-05T01:22:46;3.90;;;3.80;;
26820;SDS011;37186;51.394;5.454;2023-06-05T01:25:49;3.80;;;3.70;;
26820;SDS011;37186;51.394;5.454;2023-06-05T01:28:49;3.70;;;3.60;;
26820;SDS011;37186;51.394;5.454;2023-06-05T01:31:53;3.58;;;3.47;;
26820;SDS011;37186;51.394;5.454;2023-06-05T01:34:58;3.72;;;3.63;;
26820;SDS011;37186;51.394;5.454;2023-06-05T01:38:00;3.80;;;3.70;;
26820;SDS011;37186;51.394;5.454;2023-06-05T01:41:05;3.95;;;3.85;;
26820;SDS011;37186;51.394;5.454;2023-06-05T01:44:07;3.70;;;3.60;;
26820;SDS011;37186;51.394;5.454;2023-06-05T01:47:08;3.38;;;3.28;;
26820;SDS011;37186;51.394;5.454;2023-06-05T01:50:10;3.65;;;3.55;;
26820;SDS011;37186;51.394;5.454;2023-06-05T01:53:12;3.83;;;3.72;;
26820;SDS011;37186;51.394;5.454;2023-06-05T01:56:13;4.35;;;4.25;;
26820;SDS011;37186;51.394;5.454;2023-06-05T01:59:19;4.53;;;4.43;;
26820;SDS011;37186;51.394;5.454;2023-06-05T02:02:20;4.80;;;4.70;;
26820;SDS011;37186;51.394;5.454;2023-06-05T02:05:21;5.18;;;5.07;;
26820;SDS011;37186;51.394;5.454;2023-06-05T02:08:22;5.60;;;5.50;;
26820;SDS011;37186;51.394;5.454;2023-06-05T02:11:22;6.22;;;6.03;;
26820;SDS011;37186;51.394;5.454;2023-06-05T02:14:26;6.22;;;6.03;;
26820;SDS011;37186;51.394;5.454;2023-06-05T02:17:27;6.32;;;6.13;;
26820;SDS011;37186;51.394;5.454;2023-06-05T02:20:27;6.72;;;6.53;;
26820;SDS011;37186;51.394;5.454;2023-06-05T02:23:28;6.97;;;6.78;;
26820;SDS011;37186;51.394;5.454;2023-06-05T02:26:29;6.78;;;6.57;;
26820;SDS011;37186;51.394;5.454;2023-06-05T02:29:30;6.68;;;6.47;;
26820;SDS011;37186;51.394;5.454;2023-06-05T02:32:30;7.40;;;7.20;;
26820;SDS011;37186;51.394;5.454;2023-06-05T02:35:31;7.25;;;7.05;;
26820;SDS011;37186;51.394;5.454;2023-06-05T02:38:31;7.22;;;7.03;;
26820;SDS011;37186;51.394;5.454;2023-06-05T02:41:32;6.80;;;6.60;;
26820;SDS011;37186;51.394;5.454;2023-06-05T02:44:33;6.83;;;6.63;;
26820;SDS011;37186;51.394;5.454;2023-06-05T02:47:34;6.43;;;6.22;;
26820;SDS011;37186;51.394;5.454;2023-06-05T02:50:35;6.75;;;6.55;;
26820;SDS011;37186;51.394;5.454;2023-06-05T02:53:35;6.55;;;6.35;;
26820;SDS011;37186;51.394;5.454;2023-06-05T02:56:36;5.65;;;5.55;;
26820;SDS011;37186;51.394;5.454;2023-06-05T02:59:37;6.03;;;5.82;;
26820;SDS011;37186;51.394;5.454;2023-06-05T03:02:39;6.07;;;5.88;;
26820;SDS011;37186;51.394;5.454;2023-06-05T03:05:40;6.13;;;5.93;;
26820;SDS011;37186;51.394;5.454;2023-06-05T03:08:40;5.75;;;5.60;;
26820;SDS011;37186;51.394;5.454;2023-06-05T03:11:41;6.15;;;5.95;;
26820;SDS011;37186;51.394;5.454;2023-06-05T03:14:42;6.30;;;6.10;;
26820;SDS011;37186;51.394;5.454;2023-06-05T03:17:42;6.10;;;5.90;;
26820;SDS011;37186;51.394;5.454;2023-06-05T03:20:43;6.40;;;6.20;;
26820;SDS011;37186;51.394;5.454;2023-06-05T03:23:43;5.47;;;5.38;;
26820;SDS011;37186;51.394;5.454;2023-06-05T03:26:44;5.93;;;5.72;;
26820;SDS011;37186;51.394;5.454;2023-06-05T03:29:44;5.43;;;5.32;;
26820;SDS011;37186;51.394;5.454;2023-06-05T03:32:45;5.05;;;4.95;;
26820;SDS011;37186;51.394;5.454;2023-06-05T03:35:46;5.20;;;5.10;;
26820;SDS011;37186;51.394;5.454;2023-06-05T03:38:49;4.70;;;4.60;;
26820;SDS011;37186;51.394;5.454;2023-06-05T03:41:49;4.88;;;4.78;;
26820;SDS011;37186;51.394;5.454;2023-06-05T03:44:50;4.93;;;4.82;;
26820;SDS011;37186;51.394;5.454;2023-06-05T03:47:51;5.03;;;4.93;;
26820;SDS011;37186;51.394;5.454;2023-06-05T03:50:51;4.78;;;4.68;;
26820;SDS011;37186;51.394;5.454;2023-06-05T03:53:53;4.03;;;3.92;;
26820;SDS011;37186;51.394;5.454;2023-06-05T03:56:55;3.42;;;3.33;;
26820;SDS011;37186;51.394;5.454;2023-06-05T04:00:10;3.65;;;3.55;;
26820;SDS011;37186;51.394;5.454;2023-06-05T04:03:12;3.57;;;3.47;;
26820;SDS011;37186;51.394;5.454;2023-06-05T04:06:12;3.40;;;3.30;;
26820;SDS011;37186;51.394;5.454;2023-06-05T04:09:13;3.67;;;3.58;;
26820;SDS011;37186;51.394;5.454;2023-06-05T04:12:13;3.72;;;3.63;;
26820;SDS011;37186;51.394;5.454;2023-06-05T04:15:14;3.63;;;3.53;;
26820;SDS011;37186;51.394;5.454;2023-06-05T04:18:15;3.58;;;3.47;;
26820;SDS011;37186;51.394;5.454;2023-06-05T04:21:16;3.78;;;3.67;;
26820;SDS011;37186;51.394;5.454;2023-06-05T04:24:16;3.97;;;3.88;;
26820;SDS011;37186;51.394;5.454;2023-06-05T04:27:17;3.50;;;3.40;;
26820;SDS011;37186;51.394;5.454;2023-06-05T04:30:18;3.90;;;3.80;;
26820;SDS011;37186;51.394;5.454;2023-06-05T04:33:18;4.03;;;3.92;;
26820;SDS011;37186;51.394;5.454;2023-06-05T04:36:19;4.13;;;4.03;;
26820;SDS011;37186;51.394;5.454;2023-06-05T04:39:20;4.07;;;3.97;;
26820;SDS011;37186;51.394;5.454;2023-06-05T04:42:21;3.93;;;3.83;;
26820;SDS011;37186;51.394;5.454;2023-06-05T04:45:21;3.78;;;3.67;;
26820;SDS011;37186;51.394;5.454;2023-06-05T04:48:22;3.60;;;3.50;;
26820;SDS011;37186;51.394;5.454;2023-06-05T04:51:23;4.03;;;3.93;;
26820;SDS011;37186;51.394;5.454;2023-06-05T04:54:23;4.00;;;3.90;;
26820;SDS011;37186;51.394;5.454;2023-06-05T04:57:25;4.25;;;4.15;;
26820;SDS011;37186;51.394;5.454;2023-06-05T05:00:28;5.03;;;4.93;;
26820;SDS011;37186;51.394;5.454;2023-06-05T05:03:29;5.97;;;5.77;;
26820;SDS011;37186;51.394;5.454;2023-06-05T05:06:30;5.30;;;5.20;;
26820;SDS011;37186;51.394;5.454;2023-06-05T05:09:31;5.68;;;5.55;;
26820;SDS011;37186;51.394;5.454;2023-06-05T05:12:31;5.77;;;5.63;;
26820;SDS011;37186;51.394;5.454;2023-06-05T05:15:32;5.18;;;5.07;;
26820;SDS011;37186;51.394;5.454;2023-06-05T05:18:33;4.53;;;4.43;;
26820;SDS011;37186;51.394;5.454;2023-06-05T05:21:34;4.95;;;4.85;;
26820;SDS011;37186;51.394;5.454;2023-06-05T05:24:36;4.47;;;4.38;;
26820;SDS011;37186;51.394;5.454;2023-06-05T05:27:36;5.07;;;4.97;;
26820;SDS011;37186;51.394;5.454;2023-06-05T05:30:37;16.50;;;16.00;;
26820;SDS011;37186;51.394;5.454;2023-06-05T05:33:38;11.52;;;11.23;;
26820;SDS011;37186;51.394;5.454;2023-06-05T05:36:38;10.52;;;10.23;;
26820;SDS011;37186;51.394;5.454;2023-06-05T05:39:39;8.88;;;8.63;;
26820;SDS011;37186;51.394;5.454;2023-06-05T05:42:39;8.07;;;7.88;;
26820;SDS011;37186;51.394;5.454;2023-06-05T05:45:41;15.82;;;15.32;;
26820;SDS011;37186;51.394;5.454;2023-06-05T05:48:43;13.15;;;12.75;;
26820;SDS011;37186;51.394;5.454;2023-06-05T05:51:44;12.52;;;12.13;;
26820;SDS011;37186;51.394;5.454;2023-06-05T05:54:44;9.07;;;8.80;;
26820;SDS011;37186;51.394;5.454;2023-06-05T05:57:45;7.95;;;7.75;;
26820;SDS011;37186;51.394;5.454;2023-06-05T06:00:45;7.55;;;7.35;;
26820;SDS011;37186;51.394;5.454;2023-06-05T06:03:47;7.60;;;7.40;;
26820;SDS011;37186;51.394;5.454;2023-06-05T06:06:48;7.75;;;7.55;;
26820;SDS011;37186;51.394;5.454;2023-06-05T06:09:52;7.25;;;7.05;;
26820;SDS011;37186;51.394;5.454;2023-06-05T06:12:53;7.68;;;7.47;;
26820;SDS011;37186;51.394;5.454;2023-06-05T06:15:53;8.00;;;7.80;;
26820;SDS011;37186;51.394;5.454;2023-06-05T06:18:54;8.13;;;7.93;;
26820;SDS011;37186;51.394;5.454;2023-06-05T06:21:55;8.65;;;8.45;;
26820;SDS011;37186;51.394;5.454;2023-06-05T06:24:55;9.10;;;8.80;;
26820;SDS011;37186;51.394;5.454;2023-06-05T06:27:56;9.98;;;9.68;;
26820;SDS011;37186;51.394;5.454;2023-06-05T06:30:57;9.05;;;8.75;;
26820;SDS011;37186;51.394;5.454;2023-06-05T06:33:57;8.10;;;7.90;;
26820;SDS011;37186;51.394;5.454;2023-06-05T06:36:59;9.27;;;8.98;;
26820;SDS011;37186;51.394;5.454;2023-06-05T06:40:00;9.52;;;9.23;;
26820;SDS011;37186;51.394;5.454;2023-06-05T06:43:01;9.13;;;8.82;;
26820;SDS011;37186;51.394;5.454;2023-06-05T06:46:01;9.20;;;8.90;;
26820;SDS011;37186;51.394;5.454;2023-06-05T06:49:02;12.25;;;11.85;;
26820;SDS011;37186;51.394;5.454;2023-06-05T06:52:03;13.40;;;13.00;;
26820;SDS011;37186;51.394;5.454;2023-06-05T06:55:03;13.18;;;12.77;;
26820;SDS011;37186;51.394;5.454;2023-06-05T06:58:04;12.95;;;12.55;;
26820;SDS011;37186;51.394;5.454;2023-06-05T07:01:05;12.68;;;12.27;;
26820;SDS011;37186;51.394;5.454;2023-06-05T07:04:06;12.45;;;12.05;;
26820;SDS011;37186;51.394;5.454;2023-06-05T07:07:08;11.73;;;11.43;;
26820;SDS011;37186;51.394;5.454;2023-06-05T07:10:12;13.30;;;12.90;;
26820;SDS011;37186;51.394;5.454;2023-06-05T07:13:13;13.00;;;12.60;;
26820;SDS011;37186;51.394;5.454;2023-06-05T07:16:13;11.40;;;11.10;;
26820;SDS011;37186;51.394;5.454;2023-06-05T07:19:15;12.82;;;12.43;;
26820;SDS011;37186;51.394;5.454;2023-06-05T07:22:15;13.50;;;13.10;;
26820;SDS011;37186;51.394;5.454;2023-06-05T07:25:16;10.35;;;10.05;;
26820;SDS011;37186;51.394;5.454;2023-06-05T07:28:17;5.32;;;5.22;;
26820;SDS011;37186;51.394;5.454;2023-06-05T07:31:18;6.93;;;6.72;;
26820;SDS011;37186;51.394;5.454;2023-06-05T07:34:21;10.40;;;10.10;;
26820;SDS011;37186;51.394;5.454;2023-06-05T07:37:23;11.00;;;10.70;;
26820;SDS011;37186;51.394;5.454;2023-06-05T07:40:23;11.10;;;10.80;;
26820;SDS011;37186;51.394;5.454;2023-06-05T07:43:24;11.73;;;11.43;;
26820;SDS011;37186;51.394;5.454;2023-06-05T07:46:25;11.52;;;11.23;;
26820;SDS011;37186;51.394;5.454;2023-06-05T07:49:25;11.70;;;11.38;;
26820;SDS011;37186;51.394;5.454;2023-06-05T07:52:32;11.88;;;11.52;;
26820;SDS011;37186;51.394;5.454;2023-06-05T07:55:33;11.75;;;11.43;;
26820;SDS011;37186;51.394;5.454;2023-06-05T07:58:33;12.25;;;11.88;;
26820;SDS011;37186;51.394;5.454;2023-06-05T08:01:35;13.38;;;12.98;;
26820;SDS011;37186;51.394;5.454;2023-06-05T08:04:36;12.43;;;12.02;;
26820;SDS011;37186;51.394;5.454;2023-06-05T08:07:39;11.30;;;11.00;;
26820;SDS011;37186;51.394;5.454;2023-06-05T08:10:40;12.07;;;11.70;;
26820;SDS011;37186;51.394;5.454;2023-06-05T08:13:41;12.68;;;12.27;;
26820;SDS011;37186;51.394;5.454;2023-06-05T08:16:41;13.38;;;12.98;;
26820;SDS011;37186;51.394;5.454;2023-06-05T08:19:43;13.20;;;12.80;;
26820;SDS011;37186;51.394;5.454;2023-06-05T08:22:43;10.70;;;10.40;;
26820;SDS011;37186;51.394;5.454;2023-06-05T08:25:44;14.52;;;14.07;;
26820;SDS011;37186;51.394;5.454;2023-06-05T08:28:45;12.05;;;11.68;;
26820;SDS011;37186;51.394;5.454;2023-06-05T08:31:45;16.35;;;15.85;;
26820;SDS011;37186;51.394;5.454;2023-06-05T08:34:46;15.23;;;14.73;;
26820;SDS011;37186;51.394;5.454;2023-06-05T08:37:46;16.63;;;16.13;;
26820;SDS011;37186;51.394;5.454;2023-06-05T08:40:47;15.88;;;15.38;;
26820;SDS011;37186;51.394;5.454;2023-06-05T08:43:57;17.52;;;17.00;;
26820;SDS011;37186;51.394;5.454;2023-06-05T08:46:59;17.80;;;17.23;;
26820;SDS011;37186;51.394;5.454;2023-06-05T08:50:01;17.80;;;17.23;;
26820;SDS011;37186;51.394;5.454;2023-06-05T08:53:04;18.80;;;18.20;;
26820;SDS011;37186;51.394;5.454;2023-06-05T08:56:05;16.55;;;16.05;;
26820;SDS011;37186;51.394;5.454;2023-06-05T08:59:07;20.13;;;19.52;;
26820;SDS011;37186;51.394;5.454;2023-06-05T09:02:08;21.85;;;21.15;;
26820;SDS011;37186;51.394;5.454;2023-06-05T09:05:10;19.75;;;19.13;;
26820;SDS011;37186;51.394;5.454;2023-06-05T09:08:11;22.48;;;21.77;;
26820;SDS011;37186;51.394;5.454;2023-06-05T09:11:22;12.52;;;12.13;;
26820;SDS011;37186;51.394;5.454;2023-06-05T09:14:27;20.75;;;20.08;;
26820;SDS011;37186;51.394;5.454;2023-06-05T09:17:28;24.45;;;23.65;;
26820;SDS011;37186;51.394;5.454;2023-06-05T09:20:28;24.25;;;23.45;;
26820;SDS011;37186;51.394;5.454;2023-06-05T09:23:31;27.67;;;26.77;;
26820;SDS011;37186;51.394;5.454;2023-06-05T09:26:42;29.35;;;28.35;;
26820;SDS011;37186;51.394;5.454;2023-06-05T09:29:46;27.65;;;26.75;;
26820;SDS011;37186;51.394;5.454;2023-06-05T09:32:47;34.03;;;32.83;;
26820;SDS011;37186;51.394;5.454;2023-06-05T09:35:47;30.80;;;29.77;;
26820;SDS011;37186;51.394;5.454;2023-06-05T09:39:24;30.10;;;29.10;;
26820;SDS011;37186;51.394;5.454;2023-06-05T09:42:36;32.80;;;31.70;;
26820;SDS011;37186;51.394;5.454;2023-06-05T09:45:42;34.00;;;32.85;;
26820;SDS011;37186;51.394;5.454;2023-06-05T09:48:49;33.60;;;32.47;;
26820;SDS011;37186;51.394;5.454;2023-06-05T09:51:54;32.00;;;30.92;;
26820;SDS011;37186;51.394;5.454;2023-06-05T09:54:56;33.65;;;32.53;;
26820;SDS011;37186;51.394;5.454;2023-06-05T09:58:00;37.42;;;36.13;;
26820;SDS011;37186;51.394;5.454;2023-06-05T10:01:10;33.10;;;32.00;;
26820;SDS011;37186;51.394;5.454;2023-06-05T10:04:14;34.92;;;33.72;;
26820;SDS011;37186;51.394;5.454;2023-06-05T10:07:18;35.90;;;34.70;;
26820;SDS011;37186;51.394;5.454;2023-06-05T10:10:19;34.70;;;33.50;;
26820;SDS011;37186;51.394;5.454;2023-06-05T10:13:20;37.38;;;36.08;;
26820;SDS011;37186;51.394;5.454;2023-06-05T10:16:21;36.55;;;35.25;;
26820;SDS011;37186;51.394;5.454;2023-06-05T10:19:21;33.25;;;32.15;;
26820;SDS011;37186;51.394;5.454;2023-06-05T10:22:22;35.40;;;34.20;;
26820;SDS011;37186;51.394;5.454;2023-06-05T10:25:24;33.05;;;31.95;;
26820;SDS011;37186;51.394;5.454;2023-06-05T10:28:29;32.83;;;31.73;;
26820;SDS011;37186;51.394;5.454;2023-06-05T10:32:07;30.95;;;29.95;;
26820;SDS011;37186;51.394;5.454;2023-06-05T10:35:23;32.60;;;31.50;;
26820;SDS011;37186;51.394;5.454;2023-06-05T10:38:38;32.85;;;31.75;;
26820;SDS011;37186;51.394;5.454;2023-06-05T10:41:40;35.53;;;34.33;;
26820;SDS011;37186;51.394;5.454;2023-06-05T10:44:41;33.08;;;31.95;;
26820;SDS011;37186;51.394;5.454;2023-06-05T10:47:49;32.22;;;31.15;;
26820;SDS011;37186;51.394;5.454;2023-06-05T10:50:50;35.50;;;34.28;;
26820;SDS011;37186;51.394;5.454;2023-06-05T10:53:51;38.08;;;36.78;;
26820;SDS011;37186;51.394;5.454;2023-06-05T11:00:04;39.10;;;37.75;;
26820;SDS011;37186;51.394;5.454;2023-06-05T11:03:06;38.63;;;37.28;;
26820;SDS011;37186;51.394;5.454;2023-06-05T11:06:10;44.00;;;42.45;;
26820;SDS011;37186;51.394;5.454;2023-06-05T11:09:13;42.38;;;40.88;;
26820;SDS011;37186;51.394;5.454;2023-06-05T11:12:14;43.03;;;41.53;;
26820;SDS011;37186;51.394;5.454;2023-06-05T11:15:16;43.10;;;41.60;;
26820;SDS011;37186;51.394;5.454;2023-06-05T11:21:50;39.45;;;38.05;;
26820;SDS011;37186;51.394;5.454;2023-06-05T11:28:13;36.13;;;34.88;;
26820;SDS011;37186;51.394;5.454;2023-06-05T11:31:34;38.55;;;37.22;;
26820;SDS011;37186;51.394;5.454;2023-06-05T11:34:35;37.13;;;35.83;;
26820;SDS011;37186;51.394;5.454;2023-06-05T11:37:36;37.55;;;36.25;;
26820;SDS011;37186;51.394;5.454;2023-06-05T11:40:39;36.60;;;35.30;;
26820;SDS011;37186;51.394;5.454;2023-06-05T11:43:41;33.15;;;32.03;;
26820;SDS011;37186;51.394;5.454;2023-06-05T11:46:43;33.35;;;32.20;;
26820;SDS011;37186;51.394;5.454;2023-06-05T11:49:44;32.25;;;31.15;;
26820;SDS011;37186;51.394;5.454;2023-06-05T11:52:44;33.63;;;32.47;;
26820;SDS011;37186;51.394;5.454;2023-06-05T11:55:45;33.50;;;32.35;;
26820;SDS011;37186;51.394;5.454;2023-06-05T11:58:51;34.17;;;32.97;;
26820;SDS011;37186;51.394;5.454;2023-06-05T12:01:52;32.88;;;31.75;;
26820;SDS011;37186;51.394;5.454;2023-06-05T12:04:54;36.60;;;35.35;;
26820;SDS011;37186;51.394;5.454;2023-06-05T12:07:55;41.75;;;40.25;;
26820;SDS011;37186;51.394;5.454;2023-06-05T12:10:56;42.58;;;41.08;;
26820;SDS011;37186;51.394;5.454;2023-06-05T12:13:57;41.13;;;39.67;;
26820;SDS011;37186;51.394;5.454;2023-06-05T12:16:57;43.60;;;42.05;;
26820;SDS011;37186;51.394;5.454;2023-06-05T12:19:58;34.15;;;32.95;;
26820;SDS011;37186;51.394;5.454;2023-06-05T12:22:59;34.58;;;33.38;;
26820;SDS011;37186;51.394;5.454;2023-06-05T12:29:02;29.42;;;28.42;;
26820;SDS011;37186;51.394;5.454;2023-06-05T12:32:19;27.85;;;26.90;;
26820;SDS011;37186;51.394;5.454;2023-06-05T12:35:23;25.20;;;24.38;;
26820;SDS011;37186;51.394;5.454;2023-06-05T12:38:27;23.67;;;22.88;;
26820;SDS011;37186;51.394;5.454;2023-06-05T12:41:28;29.40;;;28.38;;
26820;SDS011;37186;51.394;5.454;2023-06-05T12:44:28;29.08;;;28.08;;
26820;SDS011;37186;51.394;5.454;2023-06-05T12:47:29;23.45;;;22.65;;
26820;SDS011;37186;51.394;5.454;2023-06-05T12:50:29;20.40;;;19.70;;
26820;SDS011;37186;51.394;5.454;2023-06-05T12:53:30;19.17;;;18.58;;
26820;SDS011;37186;51.394;5.454;2023-06-05T12:56:31;17.90;;;17.33;;
26820;SDS011;37186;51.394;5.454;2023-06-05T12:59:33;21.55;;;20.85;;
26820;SDS011;37186;51.394;5.454;2023-06-05T13:02:34;20.60;;;19.92;;
26820;SDS011;37186;51.394;5.454;2023-06-05T13:05:36;20.15;;;19.50;;
26820;SDS011;37186;51.394;5.454;2023-06-05T13:08:36;21.83;;;21.10;;
26820;SDS011;37186;51.394;5.454;2023-06-05T13:11:37;20.98;;;20.30;;
26820;SDS011;37186;51.394;5.454;2023-06-05T13:14:37;21.42;;;20.70;;
26820;SDS011;37186;51.394;5.454;2023-06-05T13:17:38;30.17;;;29.08;;
26820;SDS011;37186;51.394;5.454;2023-06-05T13:20:39;31.30;;;30.17;;
26820;SDS011;37186;51.394;5.454;2023-06-05T13:23:40;35.15;;;33.85;;
26820;SDS011;37186;51.394;5.454;2023-06-05T13:26:40;43.03;;;41.35;;
26820;SDS011;37186;51.394;5.454;2023-06-05T13:29:42;43.47;;;41.88;;
26820;SDS011;37186;51.394;5.454;2023-06-05T13:32:43;37.40;;;36.00;;
26820;SDS011;37186;51.394;5.454;2023-06-05T13:35:45;40.10;;;38.63;;
26820;SDS011;37186;51.394;5.454;2023-06-05T13:38:46;37.00;;;35.70;;
26820;SDS011;37186;51.394;5.454;2023-06-05T13:41:47;29.70;;;28.65;;
26820;SDS011;37186;51.394;5.454;2023-06-05T13:44:47;22.15;;;21.45;;
26820;SDS011;37186;51.394;5.454;2023-06-05T13:47:48;25.75;;;24.85;;
26820;SDS011;37186;51.394;5.454;2023-06-05T13:50:49;29.20;;;28.20;;
26820;SDS011;37186;51.394;5.454;2023-06-05T13:53:49;24.38;;;23.58;;
26820;SDS011;37186;51.394;5.454;2023-06-05T13:56:50;29.85;;;28.83;;
26820;SDS011;37186;51.394;5.454;2023-06-05T13:59:53;28.73;;;27.73;;
26820;SDS011;37186;51.394;5.454;2023-06-05T14:02:55;24.42;;;23.60;;
26820;SDS011;37186;51.394;5.454;2023-06-05T14:05:56;17.67;;;17.10;;
26820;SDS011;37186;51.394;5.454;2023-06-05T14:08:57;16.25;;;15.75;;
26820;SDS011;37186;51.394;5.454;2023-06-05T14:11:58;10.25;;;9.95;;
26820;SDS011;37186;51.394;5.454;2023-06-05T14:14:59;10.27;;;9.98;;
26820;SDS011;37186;51.394;5.454;2023-06-05T14:18:00;10.60;;;10.30;;
26820;SDS011;37186;51.394;5.454;2023-06-05T14:21:03;10.32;;;10.02;;
26820;SDS011;37186;51.394;5.454;2023-06-05T14:24:03;11.48;;;11.15;;
26820;SDS011;37186;51.394;5.454;2023-06-05T14:27:05;9.48;;;9.18;;
26820;SDS011;37186;51.394;5.454;2023-06-05T14:30:06;15.98;;;15.48;;
26820;SDS011;37186;51.394;5.454;2023-06-05T14:33:09;18.58;;;17.98;;
26820;SDS011;37186;51.394;5.454;2023-06-05T14:36:10;22.88;;;22.10;;
26820;SDS011;37186;51.394;5.454;2023-06-05T14:39:11;20.63;;;19.92;;
26820;SDS011;37186;51.394;5.454;2023-06-05T14:42:11;17.08;;;16.52;;
26820;SDS011;37186;51.394;5.454;2023-06-05T14:45:12;15.25;;;14.75;;
26820;SDS011;37186;51.394;5.454;2023-06-05T14:48:12;13.40;;;13.00;;
26820;SDS011;37186;51.394;5.454;2023-06-05T14:51:13;11.82;;;11.43;;
26820;SDS011;37186;51.394;5.454;2023-06-05T14:54:13;10.75;;;10.45;;
26820;SDS011;37186;51.394;5.454;2023-06-05T14:57:14;9.85;;;9.55;;
26820;SDS011;37186;51.394;5.454;2023-06-05T15:00:15;11.52;;;11.23;;
26820;SDS011;37186;51.394;5.454;2023-06-05T15:03:16;10.07;;;9.77;;
26820;SDS011;37186;51.394;5.454;2023-06-05T15:06:16;12.63;;;12.23;;
26820;SDS011;37186;51.394;5.454;2023-06-05T15:09:17;9.65;;;9.35;;
26820;SDS011;37186;51.394;5.454;2023-06-05T15:12:17;12.25;;;11.85;;
26820;SDS011;37186;51.394;5.454;2023-06-05T15:15:18;13.02;;;12.63;;
26820;SDS011;37186;51.394;5.454;2023-06-05T15:18:18;15.80;;;15.30;;
26820;SDS011;37186;51.394;5.454;2023-06-05T15:21:19;16.98;;;16.45;;
26820;SDS011;37186;51.394;5.454;2023-06-05T15:24:19;18.95;;;18.35;;
26820;SDS011;37186;51.394;5.454;2023-06-05T15:27:20;20.13;;;19.48;;
26820;SDS011;37186;51.394;5.454;2023-06-05T15:30:20;19.27;;;18.67;;
26820;SDS011;37186;51.394;5.454;2023-06-05T15:33:21;15.75;;;15.25;;
26820;SDS011;37186;51.394;5.454;2023-06-05T15:36:21;20.90;;;20.20;;
26820;SDS011;37186;51.394;5.454;2023-06-05T15:39:22;18.35;;;17.75;;
26820;SDS011;37186;51.394;5.454;2023-06-05T15:42:32;24.73;;;23.90;;
26820;SDS011;37186;51.394;5.454;2023-06-05T15:45:34;17.15;;;16.60;;
26820;SDS011;37186;51.394;5.454;2023-06-05T15:48:35;25.77;;;24.88;;
26820;SDS011;37186;51.394;5.454;2023-06-05T15:51:36;28.25;;;27.15;;
26820;SDS011;37186;51.394;5.454;2023-06-05T15:54:37;29.52;;;28.45;;
26820;SDS011;37186;51.394;5.454;2023-06-05T15:57:37;30.50;;;29.30;;
26820;SDS011;37186;51.394;5.454;2023-06-05T16:00:38;29.33;;;28.23;;
26820;SDS011;37186;51.394;5.454;2023-06-05T16:03:38;33.80;;;32.50;;
26820;SDS011;37186;51.394;5.454;2023-06-05T16:06:39;30.60;;;29.45;;
26820;SDS011;37186;51.394;5.454;2023-06-05T16:09:43;35.50;;;34.17;;
26820;SDS011;37186;51.394;5.454;2023-06-05T16:12:44;32.40;;;31.20;;
26820;SDS011;37186;51.394;5.454;2023-06-05T16:15:44;33.72;;;32.53;;
26820;SDS011;37186;51.394;5.454;2023-06-05T16:18:45;34.65;;;33.38;;
26820;SDS011;37186;51.394;5.454;2023-06-05T16:21:46;35.55;;;34.25;;
26820;SDS011;37186;51.394;5.454;2023-06-05T16:24:46;37.22;;;35.88;;
26820;SDS011;37186;51.394;5.454;2023-06-05T16:27:47;39.83;;;38.35;;
26820;SDS011;37186;51.394;5.454;2023-06-05T16:30:47;38.53;;;37.13;;
26820;SDS011;37186;51.394;5.454;2023-06-05T16:33:48;38.72;;;37.33;;
26820;SDS011;37186;51.394;5.454;2023-06-05T16:36:48;37.65;;;36.30;;
26820;SDS011;37186;51.394;5.454;2023-06-05T16:39:49;41.60;;;40.10;;
26820;SDS011;37186;51.394;5.454;2023-06-05T16:42:50;42.63;;;41.13;;
26820;SDS011;37186;51.394;5.454;2023-06-05T16:45:50;37.90;;;36.58;;
26820;SDS011;37186;51.394;5.454;2023-06-05T16:48:54;34.97;;;33.78;;
26820;SDS011;37186;51.394;5.454;2023-06-05T16:51:55;36.67;;;35.38;;
26820;SDS011;37186;51.394;5.454;2023-06-05T16:54:55;34.95;;;33.72;;
26820;SDS011;37186;51.394;5.454;2023-06-05T16:57:56;38.90;;;37.50;;
26820;SDS011;37186;51.394;5.454;2023-06-05T17:00:56;35.78;;;34.47;;
26820;SDS011;37186;51.394;5.454;2023-06-05T17:03:57;37.20;;;35.83;;
26820;SDS011;37186;51.394;5.454;2023-06-05T17:06:57;39.42;;;37.95;;
26820;SDS011;37186;51.394;5.454;2023-06-05T17:09:58;39.20;;;37.78;;
26820;SDS011;37186;51.394;5.454;2023-06-05T17:12:58;40.03;;;38.53;;
26820;SDS011;37186;51.394;5.454;2023-06-05T17:16:01;38.75;;;37.33;;
26820;SDS011;37186;51.394;5.454;2023-06-05T17:19:02;46.25;;;44.50;;
26820;SDS011;37186;51.394;5.454;2023-06-05T17:22:03;45.72;;;44.03;;
26820;SDS011;37186;51.394;5.454;2023-06-05T17:25:04;39.30;;;37.85;;
26820;SDS011;37186;51.394;5.454;2023-06-05T17:28:07;42.10;;;40.50;;
26820;SDS011;37186;51.394;5.454;2023-06-05T17:31:07;39.88;;;38.38;;
26820;SDS011;37186;51.394;5.454;2023-06-05T17:34:08;39.35;;;37.85;;
26820;SDS011;37186;51.394;5.454;2023-06-05T17:37:08;41.67;;;40.10;;
26820;SDS011;37186;51.394;5.454;2023-06-05T17:40:09;41.28;;;39.72;;
26820;SDS011;37186;51.394;5.454;2023-06-05T17:43:11;38.13;;;36.67;;
26820;SDS011;37186;51.394;5.454;2023-06-05T17:46:11;42.70;;;41.10;;
26820;SDS011;37186;51.394;5.454;2023-06-05T17:49:12;42.80;;;41.20;;
26820;SDS011;37186;51.394;5.454;2023-06-05T17:52:12;45.47;;;43.78;;
26820;SDS011;37186;51.394;5.454;2023-06-05T17:55:14;45.33;;;43.63;;
26820;SDS011;37186;51.394;5.454;2023-06-05T17:58:14;54.92;;;52.78;;
26820;SDS011;37186;51.394;5.454;2023-06-05T18:01:16;62.55;;;60.15;;
26820;SDS011;37186;51.394;5.454;2023-06-05T18:04:16;49.85;;;47.97;;
26820;SDS011;37186;51.394;5.454;2023-06-05T18:07:17;50.42;;;48.50;;